sensor_id;sensor_type;location;lat;lon;timestamp;P1;durP1;ratioP1;P2;durP2;ratioP2
30888;SDS011;51092;50.874;7.024;2023-08-20T00:00:29;17.83;;;13.45;;
30888;SDS011;51092;50.874;7.024;2023-08-20T00:01:32;15.27;;;13.35;;
30888;SDS011;51092;50.874;7.024;2023-08-20T00:02:34;16.90;;;12.10;;
30888;SDS011;51092;50.874;7.024;2023-08-20T00:03:38;17.55;;;14.43;;
30888;SDS011;51092;50.874;7.024;2023-08-20T00:04:42;19.85;;;17.33;;
30888;SDS011;51092;50.874;7.024;2023-08-20T00:05:47;24.73;;;18.83;;
30888;SDS011;51092;50.874;7.024;2023-08-20T00:06:50;20.33;;;16.63;;
30888;SDS011;51092;50.874;7.024;2023-08-20T00:07:51;14.60;;;12.82;;
30888;SDS011;51092;50.874;7.024;2023-08-20T00:08:53;13.73;;;11.15;;
30888;SDS011;51092;50.874;7.024;2023-08-20T00:09:55;12.00;;;10.82;;
30888;SDS011;51092;50.874;7.024;2023-08-20T00:10:57;13.73;;;12.32;;
30888;SDS011;51092;50.874;7.024;2023-08-20T00:11:59;16.30;;;13.70;;
30888;SDS011;51092;50.874;7.024;2023-08-20T00:13:03;22.52;;;16.75;;
30888;SDS011;51092;50.874;7.024;2023-08-20T00:14:05;18.25;;;14.48;;
30888;SDS011;51092;50.874;7.024;2023-08-20T00:15:09;18.48;;;13.63;;
30888;SDS011;51092;50.874;7.024;2023-08-20T00:16:12;19.38;;;14.60;;
30888;SDS011;51092;50.874;7.024;2023-08-20T00:17:14;20.20;;;13.95;;
30888;SDS011;51092;50.874;7.024;2023-08-20T00:18:17;17.05;;;13.98;;
30888;SDS011;51092;50.874;7.024;2023-08-20T00:19:19;16.02;;;13.60;;
30888;SDS011;51092;50.874;7.024;2023-08-20T00:20:22;13.57;;;12.18;;
30888;SDS011;51092;50.874;7.024;2023-08-20T00:21:24;13.23;;;11.88;;
30888;SDS011;51092;50.874;7.024;2023-08-20T00:22:27;15.50;;;13.15;;
30888;SDS011;51092;50.874;7.024;2023-08-20T00:23:31;15.68;;;12.75;;
30888;SDS011;51092;50.874;7.024;2023-08-20T00:24:34;13.60;;;12.05;;
30888;SDS011;51092;50.874;7.024;2023-08-20T00:25:36;15.45;;;12.45;;
30888;SDS011;51092;50.874;7.024;2023-08-20T00:26:39;12.68;;;10.82;;
30888;SDS011;51092;50.874;7.024;2023-08-20T00:27:41;14.10;;;12.10;;
30888;SDS011;51092;50.874;7.024;2023-08-20T00:28:44;13.23;;;11.57;;
30888;SDS011;51092;50.874;7.024;2023-08-20T00:29:46;15.07;;;12.30;;
30888;SDS011;51092;50.874;7.024;2023-08-20T00:30:49;14.65;;;13.13;;
30888;SDS011;51092;50.874;7.024;2023-08-20T00:31:51;16.02;;;14.32;;
30888;SDS011;51092;50.874;7.024;2023-08-20T00:32:53;19.00;;;14.75;;
30888;SDS011;51092;50.874;7.024;2023-08-20T00:33:56;17.48;;;14.05;;
30888;SDS011;51092;50.874;7.024;2023-08-20T00:34:57;14.55;;;12.82;;
30888;SDS011;51092;50.874;7.024;2023-08-20T00:36:00;15.85;;;13.65;;
30888;SDS011;51092;50.874;7.024;2023-08-20T00:37:01;16.30;;;13.25;;
30888;SDS011;51092;50.874;7.024;2023-08-20T00:38:03;14.88;;;13.02;;
30888;SDS011;51092;50.874;7.024;2023-08-20T00:39:06;19.67;;;13.80;;
30888;SDS011;51092;50.874;7.024;2023-08-20T00:40:08;15.75;;;13.27;;
30888;SDS011;51092;50.874;7.024;2023-08-20T00:41:12;16.50;;;13.43;;
30888;SDS011;51092;50.874;7.024;2023-08-20T00:42:13;15.88;;;13.25;;
30888;SDS011;51092;50.874;7.024;2023-08-20T00:43:16;17.23;;;13.85;;
30888;SDS011;51092;50.874;7.024;2023-08-20T00:44:17;13.20;;;11.77;;
30888;SDS011;51092;50.874;7.024;2023-08-20T00:45:20;17.88;;;14.35;;
30888;SDS011;51092;50.874;7.024;2023-08-20T00:46:23;20.05;;;14.02;;
30888;SDS011;51092;50.874;7.024;2023-08-20T00:47:25;22.58;;;15.05;;
30888;SDS011;51092;50.874;7.024;2023-08-20T00:48:29;18.20;;;12.73;;
30888;SDS011;51092;50.874;7.024;2023-08-20T00:49:31;16.02;;;13.02;;
30888;SDS011;51092;50.874;7.024;2023-08-20T00:50:33;19.80;;;13.20;;
30888;SDS011;51092;50.874;7.024;2023-08-20T00:51:36;16.75;;;14.23;;
30888;SDS011;51092;50.874;7.024;2023-08-20T00:52:38;17.33;;;15.02;;
30888;SDS011;51092;50.874;7.024;2023-08-20T00:53:41;19.23;;;13.98;;
30888;SDS011;51092;50.874;7.024;2023-08-20T00:54:43;16.08;;;14.45;;
30888;SDS011;51092;50.874;7.024;2023-08-20T00:55:46;20.63;;;15.35;;
30888;SDS011;51092;50.874;7.024;2023-08-20T00:56:47;24.48;;;15.25;;
30888;SDS011;51092;50.874;7.024;2023-08-20T00:57:51;18.58;;;14.75;;
30888;SDS011;51092;50.874;7.024;2023-08-20T00:58:52;14.80;;;13.20;;
30888;SDS011;51092;50.874;7.024;2023-08-20T00:59:55;16.27;;;12.82;;
30888;SDS011;51092;50.874;7.024;2023-08-20T01:00:57;16.40;;;13.35;;
30888;SDS011;51092;50.874;7.024;2023-08-20T01:02:01;15.60;;;13.95;;
30888;SDS011;51092;50.874;7.024;2023-08-20T01:03:04;15.07;;;12.68;;
30888;SDS011;51092;50.874;7.024;2023-08-20T01:04:07;14.20;;;12.70;;
30888;SDS011;51092;50.874;7.024;2023-08-20T01:05:09;16.55;;;13.25;;
30888;SDS011;51092;50.874;7.024;2023-08-20T01:06:15;18.83;;;15.00;;
30888;SDS011;51092;50.874;7.024;2023-08-20T01:07:24;16.92;;;13.75;;
30888;SDS011;51092;50.874;7.024;2023-08-20T01:08:33;16.58;;;12.43;;
30888;SDS011;51092;50.874;7.024;2023-08-20T01:09:41;17.23;;;12.70;;
30888;SDS011;51092;50.874;7.024;2023-08-20T01:10:52;15.25;;;11.75;;
30888;SDS011;51092;50.874;7.024;2023-08-20T01:11:59;18.08;;;12.85;;
30888;SDS011;51092;50.874;7.024;2023-08-20T01:13:03;14.38;;;12.68;;
30888;SDS011;51092;50.874;7.024;2023-08-20T01:14:13;21.80;;;16.08;;
30888;SDS011;51092;50.874;7.024;2023-08-20T01:15:16;19.70;;;17.05;;
30888;SDS011;51092;50.874;7.024;2023-08-20T01:16:18;25.30;;;17.65;;
30888;SDS011;51092;50.874;7.024;2023-08-20T01:17:22;21.88;;;15.43;;
30888;SDS011;51092;50.874;7.024;2023-08-20T01:18:24;23.75;;;16.73;;
30888;SDS011;51092;50.874;7.024;2023-08-20T01:19:26;18.92;;;16.27;;
30888;SDS011;51092;50.874;7.024;2023-08-20T01:20:29;20.48;;;15.73;;
30888;SDS011;51092;50.874;7.024;2023-08-20T01:21:38;15.65;;;12.75;;
30888;SDS011;51092;50.874;7.024;2023-08-20T01:22:50;17.20;;;12.40;;
30888;SDS011;51092;50.874;7.024;2023-08-20T01:24:10;14.50;;;13.07;;
30888;SDS011;51092;50.874;7.024;2023-08-20T01:25:30;17.92;;;12.98;;
30888;SDS011;51092;50.874;7.024;2023-08-20T01:26:48;19.23;;;12.15;;
30888;SDS011;51092;50.874;7.024;2023-08-20T01:28:18;18.08;;;13.55;;
30888;SDS011;51092;50.874;7.024;2023-08-20T01:29:22;15.90;;;12.40;;
30888;SDS011;51092;50.874;7.024;2023-08-20T01:30:24;14.20;;;11.73;;
30888;SDS011;51092;50.874;7.024;2023-08-20T01:31:27;17.80;;;13.10;;
30888;SDS011;51092;50.874;7.024;2023-08-20T01:32:29;17.77;;;12.98;;
30888;SDS011;51092;50.874;7.024;2023-08-20T01:33:31;15.02;;;12.98;;
30888;SDS011;51092;50.874;7.024;2023-08-20T01:34:33;14.07;;;12.30;;
30888;SDS011;51092;50.874;7.024;2023-08-20T01:35:35;16.17;;;13.85;;
30888;SDS011;51092;50.874;7.024;2023-08-20T01:36:37;15.13;;;13.40;;
30888;SDS011;51092;50.874;7.024;2023-08-20T01:37:40;19.20;;;13.23;;
30888;SDS011;51092;50.874;7.024;2023-08-20T01:38:41;15.32;;;12.98;;
30888;SDS011;51092;50.874;7.024;2023-08-20T01:39:44;14.15;;;12.65;;
30888;SDS011;51092;50.874;7.024;2023-08-20T01:40:45;15.43;;;13.40;;
30888;SDS011;51092;50.874;7.024;2023-08-20T01:41:49;17.42;;;13.40;;
30888;SDS011;51092;50.874;7.024;2023-08-20T01:42:50;15.73;;;12.02;;
30888;SDS011;51092;50.874;7.024;2023-08-20T01:43:55;15.20;;;11.98;;
30888;SDS011;51092;50.874;7.024;2023-08-20T01:44:56;18.08;;;13.60;;
30888;SDS011;51092;50.874;7.024;2023-08-20T01:45:59;19.27;;;13.32;;
30888;SDS011;51092;50.874;7.024;2023-08-20T01:47:01;15.93;;;13.07;;
30888;SDS011;51092;50.874;7.024;2023-08-20T01:48:03;17.52;;;13.18;;
30888;SDS011;51092;50.874;7.024;2023-08-20T01:49:05;16.90;;;12.95;;
30888;SDS011;51092;50.874;7.024;2023-08-20T01:50:08;14.48;;;12.63;;
30888;SDS011;51092;50.874;7.024;2023-08-20T01:51:10;16.23;;;13.32;;
30888;SDS011;51092;50.874;7.024;2023-08-20T01:52:12;18.75;;;12.80;;
30888;SDS011;51092;50.874;7.024;2023-08-20T01:53:14;14.73;;;13.23;;
30888;SDS011;51092;50.874;7.024;2023-08-20T01:54:17;18.30;;;13.20;;
30888;SDS011;51092;50.874;7.024;2023-08-20T01:55:18;17.40;;;12.63;;
30888;SDS011;51092;50.874;7.024;2023-08-20T01:56:20;17.17;;;12.95;;
30888;SDS011;51092;50.874;7.024;2023-08-20T01:57:22;15.35;;;13.50;;
30888;SDS011;51092;50.874;7.024;2023-08-20T01:58:23;15.80;;;13.10;;
30888;SDS011;51092;50.874;7.024;2023-08-20T01:59:27;16.90;;;13.93;;
30888;SDS011;51092;50.874;7.024;2023-08-20T02:00:28;15.02;;;13.55;;
30888;SDS011;51092;50.874;7.024;2023-08-20T02:01:30;16.98;;;13.73;;
30888;SDS011;51092;50.874;7.024;2023-08-20T02:02:32;16.95;;;14.27;;
30888;SDS011;51092;50.874;7.024;2023-08-20T02:03:35;17.08;;;13.75;;
30888;SDS011;51092;50.874;7.024;2023-08-20T02:04:38;14.98;;;13.23;;
30888;SDS011;51092;50.874;7.024;2023-08-20T02:05:40;18.27;;;12.70;;
30888;SDS011;51092;50.874;7.024;2023-08-20T02:06:41;13.60;;;12.20;;
30888;SDS011;51092;50.874;7.024;2023-08-20T02:07:44;16.92;;;13.85;;
30888;SDS011;51092;50.874;7.024;2023-08-20T02:08:45;17.33;;;12.80;;
30888;SDS011;51092;50.874;7.024;2023-08-20T02:09:48;13.98;;;12.65;;
30888;SDS011;51092;50.874;7.024;2023-08-20T02:10:49;14.43;;;12.93;;
30888;SDS011;51092;50.874;7.024;2023-08-20T02:11:52;17.10;;;13.25;;
30888;SDS011;51092;50.874;7.024;2023-08-20T02:12:53;15.90;;;14.30;;
30888;SDS011;51092;50.874;7.024;2023-08-20T02:13:56;14.88;;;12.75;;
30888;SDS011;51092;50.874;7.024;2023-08-20T02:14:59;16.40;;;13.82;;
30888;SDS011;51092;50.874;7.024;2023-08-20T02:16:01;14.77;;;13.23;;
30888;SDS011;51092;50.874;7.024;2023-08-20T02:17:04;15.30;;;12.77;;
30888;SDS011;51092;50.874;7.024;2023-08-20T02:18:08;19.23;;;17.35;;
30888;SDS011;51092;50.874;7.024;2023-08-20T02:19:10;19.13;;;16.58;;
30888;SDS011;51092;50.874;7.024;2023-08-20T02:20:12;17.83;;;15.07;;
30888;SDS011;51092;50.874;7.024;2023-08-20T02:21:14;16.50;;;14.35;;
30888;SDS011;51092;50.874;7.024;2023-08-20T02:22:16;21.25;;;15.02;;
30888;SDS011;51092;50.874;7.024;2023-08-20T02:23:18;18.40;;;16.00;;
30888;SDS011;51092;50.874;7.024;2023-08-20T02:24:20;20.83;;;15.85;;
30888;SDS011;51092;50.874;7.024;2023-08-20T02:25:22;20.05;;;15.35;;
30888;SDS011;51092;50.874;7.024;2023-08-20T02:26:25;19.35;;;14.88;;
30888;SDS011;51092;50.874;7.024;2023-08-20T02:27:27;14.98;;;12.40;;
30888;SDS011;51092;50.874;7.024;2023-08-20T02:28:29;17.38;;;13.55;;
30888;SDS011;51092;50.874;7.024;2023-08-20T02:29:31;14.10;;;12.30;;
30888;SDS011;51092;50.874;7.024;2023-08-20T02:30:39;14.38;;;12.98;;
30888;SDS011;51092;50.874;7.024;2023-08-20T02:31:41;16.65;;;12.95;;
30888;SDS011;51092;50.874;7.024;2023-08-20T02:32:44;13.55;;;12.15;;
30888;SDS011;51092;50.874;7.024;2023-08-20T02:33:46;19.52;;;15.68;;
30888;SDS011;51092;50.874;7.024;2023-08-20T02:34:49;23.92;;;15.68;;
30888;SDS011;51092;50.874;7.024;2023-08-20T02:35:51;20.90;;;17.38;;
30888;SDS011;51092;50.874;7.024;2023-08-20T02:36:53;18.90;;;16.45;;
30888;SDS011;51092;50.874;7.024;2023-08-20T02:37:54;23.00;;;15.45;;
30888;SDS011;51092;50.874;7.024;2023-08-20T02:38:56;18.00;;;14.85;;
30888;SDS011;51092;50.874;7.024;2023-08-20T02:39:58;20.90;;;15.85;;
30888;SDS011;51092;50.874;7.024;2023-08-20T02:41:00;20.70;;;16.00;;
30888;SDS011;51092;50.874;7.024;2023-08-20T02:42:03;20.85;;;15.15;;
30888;SDS011;51092;50.874;7.024;2023-08-20T02:43:05;21.58;;;17.42;;
30888;SDS011;51092;50.874;7.024;2023-08-20T02:44:07;17.45;;;15.48;;
30888;SDS011;51092;50.874;7.024;2023-08-20T02:45:09;21.95;;;16.95;;
30888;SDS011;51092;50.874;7.024;2023-08-20T02:46:13;18.92;;;16.52;;
30888;SDS011;51092;50.874;7.024;2023-08-20T02:47:14;20.58;;;17.40;;
30888;SDS011;51092;50.874;7.024;2023-08-20T02:48:17;21.02;;;16.50;;
30888;SDS011;51092;50.874;7.024;2023-08-20T02:49:20;19.50;;;16.50;;
30888;SDS011;51092;50.874;7.024;2023-08-20T02:50:23;24.77;;;18.25;;
30888;SDS011;51092;50.874;7.024;2023-08-20T02:51:24;20.98;;;17.45;;
30888;SDS011;51092;50.874;7.024;2023-08-20T02:52:27;20.40;;;16.67;;
30888;SDS011;51092;50.874;7.024;2023-08-20T02:53:28;19.55;;;16.25;;
30888;SDS011;51092;50.874;7.024;2023-08-20T02:54:31;20.30;;;16.77;;
30888;SDS011;51092;50.874;7.024;2023-08-20T02:55:33;21.15;;;16.23;;
30888;SDS011;51092;50.874;7.024;2023-08-20T02:56:38;21.33;;;16.95;;
30888;SDS011;51092;50.874;7.024;2023-08-20T02:57:39;19.15;;;16.23;;
30888;SDS011;51092;50.874;7.024;2023-08-20T02:58:42;18.42;;;15.75;;
30888;SDS011;51092;50.874;7.024;2023-08-20T02:59:43;20.80;;;16.38;;
30888;SDS011;51092;50.874;7.024;2023-08-20T03:00:46;16.08;;;14.38;;
30888;SDS011;51092;50.874;7.024;2023-08-20T03:01:48;20.20;;;16.38;;
30888;SDS011;51092;50.874;7.024;2023-08-20T03:02:51;17.60;;;14.15;;
30888;SDS011;51092;50.874;7.024;2023-08-20T03:03:52;18.15;;;14.63;;
30888;SDS011;51092;50.874;7.024;2023-08-20T03:04:55;15.38;;;13.85;;
30888;SDS011;51092;50.874;7.024;2023-08-20T03:05:57;19.33;;;16.38;;
30888;SDS011;51092;50.874;7.024;2023-08-20T03:06:59;19.75;;;16.45;;
30888;SDS011;51092;50.874;7.024;2023-08-20T03:08:01;17.40;;;14.98;;
30888;SDS011;51092;50.874;7.024;2023-08-20T03:09:04;17.23;;;14.50;;
30888;SDS011;51092;50.874;7.024;2023-08-20T03:10:08;20.98;;;14.75;;
30888;SDS011;51092;50.874;7.024;2023-08-20T03:11:10;17.88;;;14.95;;
30888;SDS011;51092;50.874;7.024;2023-08-20T03:12:12;21.38;;;15.65;;
30888;SDS011;51092;50.874;7.024;2023-08-20T03:13:14;17.58;;;14.15;;
30888;SDS011;51092;50.874;7.024;2023-08-20T03:14:16;20.52;;;15.00;;
30888;SDS011;51092;50.874;7.024;2023-08-20T03:15:18;22.35;;;17.42;;
30888;SDS011;51092;50.874;7.024;2023-08-20T03:16:20;18.45;;;15.13;;
30888;SDS011;51092;50.874;7.024;2023-08-20T03:17:23;18.83;;;15.82;;
30888;SDS011;51092;50.874;7.024;2023-08-20T03:18:25;20.83;;;17.13;;
30888;SDS011;51092;50.874;7.024;2023-08-20T03:19:33;20.10;;;16.38;;
30888;SDS011;51092;50.874;7.024;2023-08-20T03:20:36;23.60;;;17.15;;
30888;SDS011;51092;50.874;7.024;2023-08-20T03:21:37;18.85;;;16.60;;
30888;SDS011;51092;50.874;7.024;2023-08-20T03:22:39;19.38;;;16.30;;
30888;SDS011;51092;50.874;7.024;2023-08-20T03:23:40;25.55;;;19.02;;
30888;SDS011;51092;50.874;7.024;2023-08-20T03:24:41;22.27;;;16.50;;
30888;SDS011;51092;50.874;7.024;2023-08-20T03:25:43;19.85;;;16.00;;
30888;SDS011;51092;50.874;7.024;2023-08-20T03:26:45;20.02;;;15.68;;
30888;SDS011;51092;50.874;7.024;2023-08-20T03:27:49;19.20;;;17.38;;
30888;SDS011;51092;50.874;7.024;2023-08-20T03:28:53;26.00;;;17.27;;
30888;SDS011;51092;50.874;7.024;2023-08-20T03:29:55;21.25;;;16.92;;
30888;SDS011;51092;50.874;7.024;2023-08-20T03:30:58;21.48;;;18.05;;
30888;SDS011;51092;50.874;7.024;2023-08-20T03:32:02;19.48;;;17.50;;
30888;SDS011;51092;50.874;7.024;2023-08-20T03:33:05;26.75;;;18.33;;
30888;SDS011;51092;50.874;7.024;2023-08-20T03:34:07;21.75;;;17.88;;
30888;SDS011;51092;50.874;7.024;2023-08-20T03:35:10;21.00;;;15.13;;
30888;SDS011;51092;50.874;7.024;2023-08-20T03:36:12;21.42;;;15.20;;
30888;SDS011;51092;50.874;7.024;2023-08-20T03:37:14;18.90;;;15.77;;
30888;SDS011;51092;50.874;7.024;2023-08-20T03:38:16;15.52;;;13.90;;
30888;SDS011;51092;50.874;7.024;2023-08-20T03:39:18;15.93;;;14.00;;
30888;SDS011;51092;50.874;7.024;2023-08-20T03:40:23;16.15;;;14.30;;
30888;SDS011;51092;50.874;7.024;2023-08-20T03:41:25;18.55;;;16.33;;
30888;SDS011;51092;50.874;7.024;2023-08-20T03:42:27;23.85;;;17.67;;
30888;SDS011;51092;50.874;7.024;2023-08-20T03:43:28;21.65;;;16.63;;
30888;SDS011;51092;50.874;7.024;2023-08-20T03:44:28;22.17;;;17.58;;
30888;SDS011;51092;50.874;7.024;2023-08-20T03:45:30;19.85;;;17.05;;
30888;SDS011;51092;50.874;7.024;2023-08-20T03:46:32;19.60;;;16.60;;
30888;SDS011;51092;50.874;7.024;2023-08-20T03:47:34;20.30;;;17.20;;
30888;SDS011;51092;50.874;7.024;2023-08-20T03:48:38;20.83;;;17.45;;
30888;SDS011;51092;50.874;7.024;2023-08-20T03:49:41;18.95;;;16.95;;
30888;SDS011;51092;50.874;7.024;2023-08-20T03:50:43;19.55;;;17.55;;
30888;SDS011;51092;50.874;7.024;2023-08-20T03:51:46;20.65;;;17.52;;
30888;SDS011;51092;50.874;7.024;2023-08-20T03:52:47;19.42;;;15.80;;
30888;SDS011;51092;50.874;7.024;2023-08-20T03:53:50;22.95;;;18.17;;
30888;SDS011;51092;50.874;7.024;2023-08-20T03:54:51;20.35;;;18.30;;
30888;SDS011;51092;50.874;7.024;2023-08-20T03:55:54;21.80;;;16.92;;
30888;SDS011;51092;50.874;7.024;2023-08-20T03:56:56;19.63;;;16.58;;
30888;SDS011;51092;50.874;7.024;2023-08-20T03:57:58;15.85;;;14.02;;
30888;SDS011;51092;50.874;7.024;2023-08-20T03:59:00;15.88;;;13.65;;
30888;SDS011;51092;50.874;7.024;2023-08-20T04:00:03;16.40;;;13.60;;
30888;SDS011;51092;50.874;7.024;2023-08-20T04:01:09;18.50;;;15.15;;
30888;SDS011;51092;50.874;7.024;2023-08-20T04:02:11;21.17;;;18.92;;
30888;SDS011;51092;50.874;7.024;2023-08-20T04:03:12;21.38;;;16.38;;
30888;SDS011;51092;50.874;7.024;2023-08-20T04:04:16;22.67;;;17.70;;
30888;SDS011;51092;50.874;7.024;2023-08-20T04:05:18;18.77;;;14.40;;
30888;SDS011;51092;50.874;7.024;2023-08-20T04:06:20;20.00;;;15.23;;
30888;SDS011;51092;50.874;7.024;2023-08-20T04:07:22;17.65;;;15.07;;
30888;SDS011;51092;50.874;7.024;2023-08-20T04:08:24;18.77;;;14.43;;
30888;SDS011;51092;50.874;7.024;2023-08-20T04:09:26;18.23;;;15.02;;
30888;SDS011;51092;50.874;7.024;2023-08-20T04:10:28;17.40;;;13.98;;
30888;SDS011;51092;50.874;7.024;2023-08-20T04:11:30;20.05;;;15.10;;
30888;SDS011;51092;50.874;7.024;2023-08-20T04:12:32;17.20;;;13.45;;
30888;SDS011;51092;50.874;7.024;2023-08-20T04:13:34;17.52;;;14.25;;
30888;SDS011;51092;50.874;7.024;2023-08-20T04:14:36;17.48;;;12.70;;
30888;SDS011;51092;50.874;7.024;2023-08-20T04:15:38;15.40;;;13.80;;
30888;SDS011;51092;50.874;7.024;2023-08-20T04:16:40;15.05;;;13.45;;
30888;SDS011;51092;50.874;7.024;2023-08-20T04:17:42;16.55;;;13.40;;
30888;SDS011;51092;50.874;7.024;2023-08-20T04:18:45;16.73;;;14.38;;
30888;SDS011;51092;50.874;7.024;2023-08-20T04:19:48;18.73;;;14.20;;
30888;SDS011;51092;50.874;7.024;2023-08-20T04:20:51;17.58;;;15.73;;
30888;SDS011;51092;50.874;7.024;2023-08-20T04:21:53;19.27;;;17.30;;
30888;SDS011;51092;50.874;7.024;2023-08-20T04:22:55;21.95;;;18.95;;
30888;SDS011;51092;50.874;7.024;2023-08-20T04:23:57;22.50;;;18.55;;
30888;SDS011;51092;50.874;7.024;2023-08-20T04:24:59;24.17;;;19.52;;
30888;SDS011;51092;50.874;7.024;2023-08-20T04:26:01;20.50;;;16.20;;
30888;SDS011;51092;50.874;7.024;2023-08-20T04:27:17;26.02;;;20.48;;
30888;SDS011;51092;50.874;7.024;2023-08-20T04:28:19;28.65;;;19.77;;
30888;SDS011;51092;50.874;7.024;2023-08-20T04:29:21;21.45;;;16.58;;
30888;SDS011;51092;50.874;7.024;2023-08-20T04:30:23;18.85;;;16.65;;
30888;SDS011;51092;50.874;7.024;2023-08-20T04:31:25;23.65;;;18.15;;
30888;SDS011;51092;50.874;7.024;2023-08-20T04:32:27;24.63;;;19.48;;
30888;SDS011;51092;50.874;7.024;2023-08-20T04:33:29;27.33;;;18.55;;
30888;SDS011;51092;50.874;7.024;2023-08-20T04:34:32;24.67;;;19.90;;
30888;SDS011;51092;50.874;7.024;2023-08-20T04:35:35;22.75;;;20.02;;
30888;SDS011;51092;50.874;7.024;2023-08-20T04:36:37;26.13;;;21.00;;
30888;SDS011;51092;50.874;7.024;2023-08-20T04:37:39;23.27;;;19.33;;
30888;SDS011;51092;50.874;7.024;2023-08-20T04:38:41;18.63;;;15.90;;
30888;SDS011;51092;50.874;7.024;2023-08-20T04:39:43;19.08;;;15.85;;
30888;SDS011;51092;50.874;7.024;2023-08-20T04:40:45;21.70;;;16.75;;
30888;SDS011;51092;50.874;7.024;2023-08-20T04:41:47;18.15;;;16.25;;
30888;SDS011;51092;50.874;7.024;2023-08-20T04:42:50;17.02;;;15.23;;
30888;SDS011;51092;50.874;7.024;2023-08-20T04:43:52;20.38;;;14.85;;
30888;SDS011;51092;50.874;7.024;2023-08-20T04:44:54;20.65;;;15.48;;
30888;SDS011;51092;50.874;7.024;2023-08-20T04:45:56;18.38;;;15.52;;
30888;SDS011;51092;50.874;7.024;2023-08-20T04:46:59;19.25;;;17.15;;
30888;SDS011;51092;50.874;7.024;2023-08-20T04:48:01;24.30;;;18.02;;
30888;SDS011;51092;50.874;7.024;2023-08-20T04:49:03;23.33;;;19.33;;
30888;SDS011;51092;50.874;7.024;2023-08-20T04:50:05;23.35;;;20.80;;
30888;SDS011;51092;50.874;7.024;2023-08-20T04:51:09;23.42;;;19.77;;
30888;SDS011;51092;50.874;7.024;2023-08-20T04:52:11;24.67;;;20.02;;
30888;SDS011;51092;50.874;7.024;2023-08-20T04:53:14;20.60;;;17.73;;
30888;SDS011;51092;50.874;7.024;2023-08-20T04:54:15;29.63;;;20.48;;
30888;SDS011;51092;50.874;7.024;2023-08-20T04:55:17;30.02;;;23.33;;
30888;SDS011;51092;50.874;7.024;2023-08-20T04:56:19;23.63;;;20.85;;
30888;SDS011;51092;50.874;7.024;2023-08-20T04:57:21;29.52;;;23.55;;
30888;SDS011;51092;50.874;7.024;2023-08-20T04:58:23;25.88;;;20.75;;
30888;SDS011;51092;50.874;7.024;2023-08-20T04:59:26;22.15;;;18.80;;
30888;SDS011;51092;50.874;7.024;2023-08-20T05:00:28;26.95;;;21.92;;
30888;SDS011;51092;50.874;7.024;2023-08-20T05:01:30;26.98;;;21.65;;
30888;SDS011;51092;50.874;7.024;2023-08-20T05:02:32;27.92;;;21.92;;
30888;SDS011;51092;50.874;7.024;2023-08-20T05:03:34;27.02;;;22.90;;
30888;SDS011;51092;50.874;7.024;2023-08-20T05:04:36;27.13;;;22.00;;
30888;SDS011;51092;50.874;7.024;2023-08-20T05:05:38;29.98;;;23.27;;
30888;SDS011;51092;50.874;7.024;2023-08-20T05:06:41;26.23;;;21.38;;
30888;SDS011;51092;50.874;7.024;2023-08-20T05:07:43;21.23;;;18.88;;
30888;SDS011;51092;50.874;7.024;2023-08-20T05:08:45;20.48;;;18.27;;
30888;SDS011;51092;50.874;7.024;2023-08-20T05:09:49;27.00;;;22.85;;
30888;SDS011;51092;50.874;7.024;2023-08-20T05:10:50;29.33;;;23.05;;
30888;SDS011;51092;50.874;7.024;2023-08-20T05:11:53;28.88;;;22.42;;
30888;SDS011;51092;50.874;7.024;2023-08-20T05:12:54;28.77;;;22.38;;
30888;SDS011;51092;50.874;7.024;2023-08-20T05:13:57;28.05;;;22.95;;
30888;SDS011;51092;50.874;7.024;2023-08-20T05:14:58;29.10;;;21.45;;
30888;SDS011;51092;50.874;7.024;2023-08-20T05:16:00;23.08;;;20.63;;
30888;SDS011;51092;50.874;7.024;2023-08-20T05:17:02;26.00;;;21.70;;
30888;SDS011;51092;50.874;7.024;2023-08-20T05:18:05;22.23;;;19.73;;
30888;SDS011;51092;50.874;7.024;2023-08-20T05:19:07;27.70;;;21.55;;
30888;SDS011;51092;50.874;7.024;2023-08-20T05:20:09;23.38;;;19.80;;
30888;SDS011;51092;50.874;7.024;2023-08-20T05:21:11;20.95;;;18.80;;
30888;SDS011;51092;50.874;7.024;2023-08-20T05:22:15;26.02;;;19.08;;
30888;SDS011;51092;50.874;7.024;2023-08-20T05:23:17;27.27;;;21.75;;
30888;SDS011;51092;50.874;7.024;2023-08-20T05:24:19;27.92;;;22.08;;
30888;SDS011;51092;50.874;7.024;2023-08-20T05:25:21;29.02;;;23.67;;
30888;SDS011;51092;50.874;7.024;2023-08-20T05:26:23;22.30;;;19.25;;
30888;SDS011;51092;50.874;7.024;2023-08-20T05:27:27;21.67;;;19.40;;
30888;SDS011;51092;50.874;7.024;2023-08-20T05:28:29;22.63;;;18.73;;
30888;SDS011;51092;50.874;7.024;2023-08-20T05:29:31;30.92;;;22.73;;
30888;SDS011;51092;50.874;7.024;2023-08-20T05:30:34;23.70;;;19.40;;
30888;SDS011;51092;50.874;7.024;2023-08-20T05:31:35;25.00;;;20.70;;
30888;SDS011;51092;50.874;7.024;2023-08-20T05:32:37;23.30;;;19.52;;
30888;SDS011;51092;50.874;7.024;2023-08-20T05:33:39;22.50;;;19.50;;
30888;SDS011;51092;50.874;7.024;2023-08-20T05:34:41;23.58;;;19.85;;
30888;SDS011;51092;50.874;7.024;2023-08-20T05:35:43;20.90;;;18.65;;
30888;SDS011;51092;50.874;7.024;2023-08-20T05:36:46;28.23;;;24.65;;
30888;SDS011;51092;50.874;7.024;2023-08-20T05:37:49;24.05;;;20.63;;
30888;SDS011;51092;50.874;7.024;2023-08-20T05:38:51;33.55;;;25.45;;
30888;SDS011;51092;50.874;7.024;2023-08-20T05:39:53;23.17;;;19.88;;
30888;SDS011;51092;50.874;7.024;2023-08-20T05:40:55;29.77;;;23.52;;
30888;SDS011;51092;50.874;7.024;2023-08-20T05:41:57;28.63;;;24.92;;
30888;SDS011;51092;50.874;7.024;2023-08-20T05:42:59;30.23;;;23.88;;
30888;SDS011;51092;50.874;7.024;2023-08-20T05:44:00;29.15;;;24.48;;
30888;SDS011;51092;50.874;7.024;2023-08-20T05:45:03;33.20;;;25.35;;
30888;SDS011;51092;50.874;7.024;2023-08-20T05:46:05;36.50;;;27.13;;
30888;SDS011;51092;50.874;7.024;2023-08-20T05:47:07;31.38;;;25.30;;
30888;SDS011;51092;50.874;7.024;2023-08-20T05:48:09;33.42;;;27.00;;
30888;SDS011;51092;50.874;7.024;2023-08-20T05:49:12;35.40;;;26.15;;
30888;SDS011;51092;50.874;7.024;2023-08-20T05:50:16;30.60;;;25.27;;
30888;SDS011;51092;50.874;7.024;2023-08-20T05:51:19;25.45;;;22.35;;
30888;SDS011;51092;50.874;7.024;2023-08-20T05:52:20;26.42;;;21.15;;
30888;SDS011;51092;50.874;7.024;2023-08-20T05:53:24;24.73;;;21.25;;
30888;SDS011;51092;50.874;7.024;2023-08-20T05:54:25;27.75;;;22.30;;
30888;SDS011;51092;50.874;7.024;2023-08-20T05:55:28;31.50;;;25.98;;
30888;SDS011;51092;50.874;7.024;2023-08-20T05:56:29;31.85;;;24.25;;
30888;SDS011;51092;50.874;7.024;2023-08-20T05:57:32;22.08;;;19.75;;
30888;SDS011;51092;50.874;7.024;2023-08-20T05:58:33;26.20;;;23.40;;
30888;SDS011;51092;50.874;7.024;2023-08-20T05:59:36;28.65;;;24.17;;
30888;SDS011;51092;50.874;7.024;2023-08-20T06:00:37;28.17;;;24.25;;
30888;SDS011;51092;50.874;7.024;2023-08-20T06:01:40;28.48;;;25.02;;
30888;SDS011;51092;50.874;7.024;2023-08-20T06:02:41;30.10;;;24.92;;
30888;SDS011;51092;50.874;7.024;2023-08-20T06:03:43;28.13;;;23.25;;
30888;SDS011;51092;50.874;7.024;2023-08-20T06:04:45;24.50;;;21.80;;
30888;SDS011;51092;50.874;7.024;2023-08-20T06:05:47;25.30;;;21.05;;
30888;SDS011;51092;50.874;7.024;2023-08-20T06:06:49;26.23;;;22.05;;